METAR AND TAF INFORMATION
METAR FOR GCRR
ADDS - METARS form results

(0108 UTC 11 August 2020)
Data provider http://aviationweather.gov/metar/data/
 
METAR text: GCRR 110100Z AUTO 02013KT 350V050 9999 OVC025 23/19 Q1014
Conditions at: GCRR (ARRECIFE/LANZARO, ES) observed 0100 UTC 11 August 2020
Temperature: 23.0°C (73°F)
Dewpoint: 19.0°C (66°F) [RH = 78%]
Pressure (altimeter): 29.94 inches Hg (1014.0 mb)
Winds: from the NNE (20 degrees) at 15 MPH (13 knots; 6.7 m/s)
Visibility: 6 or more miles (10+ km)
Ceiling: 2500 feet AGL
Clouds: overcast cloud deck at 2500 feet AGL
Weather: no significant weather observed at this time

METAR text: GCRR 110030Z AUTO 02010KT 350V050 9999 BKN025 23/19 Q1014
Conditions at: GCRR (ARRECIFE/LANZARO, ES) observed 0030 UTC 11 August 2020
Temperature: 23.0°C (73°F)
Dewpoint: 19.0°C (66°F) [RH = 78%]
Pressure (altimeter): 29.94 inches Hg (1014.0 mb)
Winds: from the NNE (20 degrees) at 12 MPH (10 knots; 5.1 m/s)
Visibility: 6 or more miles (10+ km)
Ceiling: 2500 feet AGL
Clouds: broken clouds at 2500 feet AGL
Weather: no significant weather observed at this time

Forecast for: GCRR (ARRECIFE/LANZARO, ES)
Text: TAF GCRR 102000Z 1021/1121 01014KT 9999 SCT025 TX29/1114Z TN22/1106Z
Forecast period: 2100 UTC 10 August 2020 to 2100 UTC 11 August 2020
Forecast type: FROM: standard forecast or significant change
Winds: from the N (10 degrees) at 16 MPH (14 knots; 7.2 m/s)
Visibility: 6 or more miles (10+ km)
Ceiling: at least 12,000 feet AGL
Clouds: scattered clouds at 2500 feet AGL
Weather: no significant weather forecast for this period
Text: PROB40
Forecast period: 2100 UTC 10 August 2020 to 2000 UTC 11 August 2020
Forecast type: TEMPORARY: The following changes expected for less than half the time period
Winds: from the N (10 degrees) at 17 MPH (15 knots; 7.7 m/s)
gusting to 29 MPH (25 knots; 12.9 m/s)
Visibility: missing
Ceiling: unknown
Clouds: missing
Weather: no significant weather forecast for this period

 AIRPORT MAP

 RUNWAY INFORMATION
Runway 03 Runway length 7874 ft Runway width 148 ft
Runway elevation 18 ft Runway displaced threshold 0 ft Runway heading 27
Runway 21 Runway length 7874 ft Runway width 148 ft
Runway elevation 47 ft Runway displaced threshold 0 ft Runway heading 207

 AIRPORT FREQUENCIES
Type APP Name CANARIAS A Frequency 129.3 MHZ
Type ATIS Name ATIS Frequency 118.625 MHZ
Type GND Name GND Frequency 121.8 MHZ
Type TWR Name TWR Frequency 120.7 MHZ

 AIRPORT NEAR NAVIGATION AIDS
Type VOR-DME Name Lanzarote Frequency 113700 KHZ
Type NDB Name Lanzarote Frequency 310 KHZ
Type VOR-DME Name Lanzarote Frequency 115200 KHZ
Type TACAN Name Lanzarote Frequency 114700 KHZ



Powered by Virtual Airlines Manager [v2.6.2]